sensor_id;sensor_type;location;lat;lon;timestamp;P1;durP1;ratioP1;P2;durP2;ratioP2
45366;SDS011;31100;55.848;37.636;2022-10-16T00:02:20;8.80;;;5.00;;
45366;SDS011;31100;55.848;37.636;2022-10-16T00:04:45;10.00;;;5.10;;
45366;SDS011;31100;55.848;37.636;2022-10-16T00:07:11;13.05;;;4.85;;
45366;SDS011;31100;55.848;37.636;2022-10-16T00:09:37;11.18;;;5.32;;
45366;SDS011;31100;55.848;37.636;2022-10-16T00:12:02;12.32;;;5.95;;
45366;SDS011;31100;55.848;37.636;2022-10-16T00:14:29;14.98;;;6.72;;
45366;SDS011;31100;55.848;37.636;2022-10-16T00:16:55;15.35;;;7.13;;
45366;SDS011;31100;55.848;37.636;2022-10-16T00:19:21;13.98;;;7.03;;
45366;SDS011;31100;55.848;37.636;2022-10-16T00:21:46;16.88;;;6.85;;
45366;SDS011;31100;55.848;37.636;2022-10-16T00:24:30;13.43;;;7.00;;
45366;SDS011;31100;55.848;37.636;2022-10-16T00:26:56;13.13;;;5.82;;
45366;SDS011;31100;55.848;37.636;2022-10-16T00:29:21;13.63;;;6.88;;
45366;SDS011;31100;55.848;37.636;2022-10-16T00:31:47;14.93;;;6.35;;
45366;SDS011;31100;55.848;37.636;2022-10-16T00:34:12;14.63;;;6.93;;
45366;SDS011;31100;55.848;37.636;2022-10-16T00:36:38;16.38;;;6.88;;
45366;SDS011;31100;55.848;37.636;2022-10-16T00:39:03;12.63;;;6.95;;
45366;SDS011;31100;55.848;37.636;2022-10-16T00:41:29;12.68;;;6.90;;
45366;SDS011;31100;55.848;37.636;2022-10-16T00:43:56;16.73;;;6.82;;
45366;SDS011;31100;55.848;37.636;2022-10-16T00:51:40;12.98;;;6.85;;
45366;SDS011;31100;55.848;37.636;2022-10-16T00:54:09;11.57;;;7.63;;
45366;SDS011;31100;55.848;37.636;2022-10-16T00:56:37;16.35;;;7.68;;
45366;SDS011;31100;55.848;37.636;2022-10-16T00:59:06;12.88;;;8.20;;
45366;SDS011;31100;55.848;37.636;2022-10-16T01:04:01;13.90;;;7.93;;
45366;SDS011;31100;55.848;37.636;2022-10-16T01:09:19;12.43;;;7.40;;
45366;SDS011;31100;55.848;37.636;2022-10-16T01:17:15;14.07;;;8.30;;
45366;SDS011;31100;55.848;37.636;2022-10-16T01:28:10;17.73;;;8.82;;
45366;SDS011;31100;55.848;37.636;2022-10-16T01:30:37;19.63;;;8.70;;
45366;SDS011;31100;55.848;37.636;2022-10-16T01:33:05;20.10;;;8.75;;
45366;SDS011;31100;55.848;37.636;2022-10-16T01:35:39;16.15;;;8.60;;
45366;SDS011;31100;55.848;37.636;2022-10-16T01:38:12;23.92;;;9.23;;
45366;SDS011;31100;55.848;37.636;2022-10-16T01:40:41;19.08;;;9.52;;
45366;SDS011;31100;55.848;37.636;2022-10-16T01:43:17;16.77;;;8.52;;
45366;SDS011;31100;55.848;37.636;2022-10-16T01:45:45;19.20;;;8.52;;
45366;SDS011;31100;55.848;37.636;2022-10-16T01:48:12;17.67;;;8.60;;
45366;SDS011;31100;55.848;37.636;2022-10-16T01:50:39;17.55;;;8.57;;
45366;SDS011;31100;55.848;37.636;2022-10-16T01:53:07;14.95;;;9.00;;
45366;SDS011;31100;55.848;37.636;2022-10-16T01:55:36;19.65;;;8.23;;
45366;SDS011;31100;55.848;37.636;2022-10-16T01:58:04;19.67;;;8.23;;
45366;SDS011;31100;55.848;37.636;2022-10-16T02:00:31;18.58;;;8.65;;
45366;SDS011;31100;55.848;37.636;2022-10-16T02:02:56;17.63;;;8.00;;
45366;SDS011;31100;55.848;37.636;2022-10-16T02:06:06;13.68;;;8.00;;
45366;SDS011;31100;55.848;37.636;2022-10-16T02:08:14;14.57;;;8.50;;
45366;SDS011;31100;55.848;37.636;2022-10-16T02:10:39;16.23;;;7.70;;
45366;SDS011;31100;55.848;37.636;2022-10-16T02:15:51;15.38;;;7.40;;
45366;SDS011;31100;55.848;37.636;2022-10-16T02:18:16;14.30;;;7.65;;
45366;SDS011;31100;55.848;37.636;2022-10-16T02:20:52;13.07;;;6.88;;
45366;SDS011;31100;55.848;37.636;2022-10-16T02:23:40;13.70;;;7.53;;
45366;SDS011;31100;55.848;37.636;2022-10-16T02:26:07;13.25;;;6.82;;
45366;SDS011;31100;55.848;37.636;2022-10-16T02:28:40;11.00;;;6.68;;
45366;SDS011;31100;55.848;37.636;2022-10-16T02:31:08;16.25;;;6.35;;
45366;SDS011;31100;55.848;37.636;2022-10-16T02:33:35;13.25;;;7.05;;
45366;SDS011;31100;55.848;37.636;2022-10-16T02:36:03;13.05;;;6.57;;
45366;SDS011;31100;55.848;37.636;2022-10-16T02:38:28;16.38;;;6.18;;
45366;SDS011;31100;55.848;37.636;2022-10-16T02:40:55;14.60;;;7.30;;
45366;SDS011;31100;55.848;37.636;2022-10-16T02:43:21;12.45;;;6.25;;
45366;SDS011;31100;55.848;37.636;2022-10-16T02:45:49;9.88;;;5.30;;
45366;SDS011;31100;55.848;37.636;2022-10-16T02:48:15;9.60;;;6.13;;
45366;SDS011;31100;55.848;37.636;2022-10-16T02:50:40;12.10;;;6.20;;
45366;SDS011;31100;55.848;37.636;2022-10-16T02:53:06;10.45;;;5.53;;
45366;SDS011;31100;55.848;37.636;2022-10-16T02:55:31;10.80;;;6.00;;
45366;SDS011;31100;55.848;37.636;2022-10-16T02:57:57;10.70;;;5.85;;
45366;SDS011;31100;55.848;37.636;2022-10-16T03:00:23;12.00;;;5.65;;
45366;SDS011;31100;55.848;37.636;2022-10-16T03:02:49;12.88;;;5.70;;
45366;SDS011;31100;55.848;37.636;2022-10-16T03:05:14;10.90;;;5.15;;
45366;SDS011;31100;55.848;37.636;2022-10-16T03:07:40;9.27;;;5.53;;
45366;SDS011;31100;55.848;37.636;2022-10-16T03:10:06;9.32;;;5.05;;
45366;SDS011;31100;55.848;37.636;2022-10-16T03:12:32;11.95;;;6.28;;
45366;SDS011;31100;55.848;37.636;2022-10-16T03:14:57;13.57;;;5.88;;
45366;SDS011;31100;55.848;37.636;2022-10-16T03:17:23;11.38;;;5.93;;
45366;SDS011;31100;55.848;37.636;2022-10-16T03:19:49;13.13;;;6.35;;
45366;SDS011;31100;55.848;37.636;2022-10-16T03:22:15;7.70;;;5.10;;
45366;SDS011;31100;55.848;37.636;2022-10-16T03:24:40;14.93;;;7.47;;
45366;SDS011;31100;55.848;37.636;2022-10-16T03:27:06;10.27;;;5.70;;
45366;SDS011;31100;55.848;37.636;2022-10-16T03:29:32;14.90;;;6.70;;
45366;SDS011;31100;55.848;37.636;2022-10-16T03:31:58;13.65;;;7.30;;
45366;SDS011;31100;55.848;37.636;2022-10-16T03:34:23;14.75;;;6.63;;
45366;SDS011;31100;55.848;37.636;2022-10-16T03:36:49;10.80;;;6.30;;
45366;SDS011;31100;55.848;37.636;2022-10-16T03:39:15;12.85;;;5.97;;
45366;SDS011;31100;55.848;37.636;2022-10-16T03:41:40;15.02;;;6.38;;
45366;SDS011;31100;55.848;37.636;2022-10-16T03:44:06;14.07;;;5.70;;
45366;SDS011;31100;55.848;37.636;2022-10-16T03:46:32;12.10;;;6.30;;
45366;SDS011;31100;55.848;37.636;2022-10-16T03:48:57;13.77;;;6.22;;
45366;SDS011;31100;55.848;37.636;2022-10-16T03:51:23;12.70;;;5.75;;
45366;SDS011;31100;55.848;37.636;2022-10-16T03:53:48;14.65;;;6.88;;
45366;SDS011;31100;55.848;37.636;2022-10-16T03:56:14;10.75;;;5.63;;
45366;SDS011;31100;55.848;37.636;2022-10-16T03:58:39;17.05;;;6.70;;
45366;SDS011;31100;55.848;37.636;2022-10-16T04:01:05;13.95;;;5.90;;
45366;SDS011;31100;55.848;37.636;2022-10-16T04:03:30;20.48;;;7.53;;
45366;SDS011;31100;55.848;37.636;2022-10-16T04:05:56;13.65;;;6.50;;
45366;SDS011;31100;55.848;37.636;2022-10-16T04:08:22;14.35;;;6.30;;
45366;SDS011;31100;55.848;37.636;2022-10-16T04:10:47;15.77;;;7.40;;
45366;SDS011;31100;55.848;37.636;2022-10-16T04:13:12;15.43;;;8.05;;
45366;SDS011;31100;55.848;37.636;2022-10-16T04:15:38;13.23;;;6.38;;
45366;SDS011;31100;55.848;37.636;2022-10-16T04:18:04;13.50;;;6.60;;
45366;SDS011;31100;55.848;37.636;2022-10-16T04:20:30;18.15;;;6.40;;
45366;SDS011;31100;55.848;37.636;2022-10-16T04:22:55;11.15;;;6.30;;
45366;SDS011;31100;55.848;37.636;2022-10-16T04:25:21;10.63;;;5.50;;
45366;SDS011;31100;55.848;37.636;2022-10-16T04:27:47;9.50;;;5.50;;
45366;SDS011;31100;55.848;37.636;2022-10-16T04:30:12;12.98;;;5.57;;
45366;SDS011;31100;55.848;37.636;2022-10-16T04:32:38;9.10;;;5.03;;
45366;SDS011;31100;55.848;37.636;2022-10-16T04:35:04;9.85;;;4.95;;
45366;SDS011;31100;55.848;37.636;2022-10-16T04:37:29;10.20;;;4.82;;
45366;SDS011;31100;55.848;37.636;2022-10-16T04:39:55;8.32;;;4.88;;
45366;SDS011;31100;55.848;37.636;2022-10-16T04:42:21;7.88;;;4.65;;
45366;SDS011;31100;55.848;37.636;2022-10-16T04:44:46;9.85;;;5.13;;
45366;SDS011;31100;55.848;37.636;2022-10-16T04:47:12;12.38;;;5.53;;
45366;SDS011;31100;55.848;37.636;2022-10-16T04:49:38;12.52;;;5.22;;
45366;SDS011;31100;55.848;37.636;2022-10-16T04:52:04;10.48;;;4.80;;
45366;SDS011;31100;55.848;37.636;2022-10-16T04:54:30;8.63;;;5.30;;
45366;SDS011;31100;55.848;37.636;2022-10-16T04:56:55;11.63;;;5.68;;
45366;SDS011;31100;55.848;37.636;2022-10-16T04:59:21;8.15;;;4.97;;
45366;SDS011;31100;55.848;37.636;2022-10-16T05:01:47;9.52;;;5.32;;
45366;SDS011;31100;55.848;37.636;2022-10-16T05:04:13;10.32;;;5.45;;
45366;SDS011;31100;55.848;37.636;2022-10-16T05:06:40;9.00;;;5.20;;
45366;SDS011;31100;55.848;37.636;2022-10-16T05:09:06;9.55;;;5.32;;
45366;SDS011;31100;55.848;37.636;2022-10-16T05:11:31;9.00;;;4.75;;
45366;SDS011;31100;55.848;37.636;2022-10-16T05:14:00;7.72;;;5.35;;
45366;SDS011;31100;55.848;37.636;2022-10-16T05:16:25;8.98;;;5.88;;
45366;SDS011;31100;55.848;37.636;2022-10-16T05:18:51;12.00;;;5.28;;
45366;SDS011;31100;55.848;37.636;2022-10-16T05:21:17;10.98;;;5.57;;
45366;SDS011;31100;55.848;37.636;2022-10-16T05:23:43;11.15;;;6.10;;
45366;SDS011;31100;55.848;37.636;2022-10-16T05:26:09;10.50;;;5.22;;
45366;SDS011;31100;55.848;37.636;2022-10-16T05:28:34;12.25;;;5.47;;
45366;SDS011;31100;55.848;37.636;2022-10-16T05:31:03;11.02;;;5.22;;
45366;SDS011;31100;55.848;37.636;2022-10-16T05:33:31;12.18;;;5.47;;
45366;SDS011;31100;55.848;37.636;2022-10-16T05:35:56;12.40;;;5.35;;
45366;SDS011;31100;55.848;37.636;2022-10-16T05:38:22;13.70;;;6.05;;
45366;SDS011;31100;55.848;37.636;2022-10-16T05:40:50;9.73;;;5.10;;
45366;SDS011;31100;55.848;37.636;2022-10-16T05:43:17;10.60;;;5.45;;
45366;SDS011;31100;55.848;37.636;2022-10-16T05:45:43;11.45;;;5.30;;
45366;SDS011;31100;55.848;37.636;2022-10-16T05:48:08;11.50;;;6.07;;
45366;SDS011;31100;55.848;37.636;2022-10-16T05:50:34;9.52;;;5.45;;
45366;SDS011;31100;55.848;37.636;2022-10-16T05:53:00;12.82;;;5.38;;
45366;SDS011;31100;55.848;37.636;2022-10-16T05:55:25;9.75;;;5.35;;
45366;SDS011;31100;55.848;37.636;2022-10-16T05:57:59;10.13;;;5.05;;
45366;SDS011;31100;55.848;37.636;2022-10-16T06:00:25;10.57;;;6.22;;
45366;SDS011;31100;55.848;37.636;2022-10-16T06:02:50;11.57;;;5.93;;
45366;SDS011;31100;55.848;37.636;2022-10-16T06:05:16;12.60;;;4.80;;
45366;SDS011;31100;55.848;37.636;2022-10-16T06:07:41;9.98;;;4.93;;
45366;SDS011;31100;55.848;37.636;2022-10-16T06:10:07;11.52;;;5.35;;
45366;SDS011;31100;55.848;37.636;2022-10-16T06:12:33;8.73;;;5.20;;
45366;SDS011;31100;55.848;37.636;2022-10-16T06:14:59;14.10;;;5.78;;
45366;SDS011;31100;55.848;37.636;2022-10-16T06:17:24;12.73;;;5.55;;
45366;SDS011;31100;55.848;37.636;2022-10-16T06:19:50;12.02;;;6.47;;
45366;SDS011;31100;55.848;37.636;2022-10-16T06:22:16;14.98;;;5.28;;
45366;SDS011;31100;55.848;37.636;2022-10-16T06:24:41;12.02;;;5.75;;
45366;SDS011;31100;55.848;37.636;2022-10-16T06:27:07;13.00;;;5.97;;
45366;SDS011;31100;55.848;37.636;2022-10-16T06:29:32;13.32;;;5.53;;
45366;SDS011;31100;55.848;37.636;2022-10-16T06:31:58;11.70;;;5.18;;
45366;SDS011;31100;55.848;37.636;2022-10-16T06:34:23;12.70;;;6.15;;
45366;SDS011;31100;55.848;37.636;2022-10-16T06:36:49;11.30;;;5.43;;
45366;SDS011;31100;55.848;37.636;2022-10-16T06:39:14;12.43;;;5.95;;
45366;SDS011;31100;55.848;37.636;2022-10-16T06:41:40;10.88;;;5.45;;
45366;SDS011;31100;55.848;37.636;2022-10-16T06:44:06;11.82;;;5.55;;
45366;SDS011;31100;55.848;37.636;2022-10-16T06:46:32;12.85;;;6.00;;
45366;SDS011;31100;55.848;37.636;2022-10-16T06:48:58;11.23;;;5.70;;
45366;SDS011;31100;55.848;37.636;2022-10-16T06:51:24;11.77;;;5.63;;
45366;SDS011;31100;55.848;37.636;2022-10-16T06:53:51;10.95;;;5.22;;
45366;SDS011;31100;55.848;37.636;2022-10-16T06:56:18;9.88;;;5.63;;
45366;SDS011;31100;55.848;37.636;2022-10-16T06:58:47;10.10;;;5.05;;
45366;SDS011;31100;55.848;37.636;2022-10-16T07:01:13;8.45;;;5.60;;
45366;SDS011;31100;55.848;37.636;2022-10-16T07:03:40;11.95;;;5.43;;
45366;SDS011;31100;55.848;37.636;2022-10-16T07:06:08;12.25;;;5.40;;
45366;SDS011;31100;55.848;37.636;2022-10-16T07:08:35;10.57;;;5.43;;
45366;SDS011;31100;55.848;37.636;2022-10-16T07:11:12;9.55;;;5.57;;
45366;SDS011;31100;55.848;37.636;2022-10-16T07:13:39;10.63;;;5.60;;
45366;SDS011;31100;55.848;37.636;2022-10-16T07:18:32;11.90;;;5.65;;
45366;SDS011;31100;55.848;37.636;2022-10-16T07:21:08;10.23;;;5.30;;
45366;SDS011;31100;55.848;37.636;2022-10-16T07:23:35;10.13;;;5.40;;
45366;SDS011;31100;55.848;37.636;2022-10-16T07:26:00;10.65;;;5.30;;
45366;SDS011;31100;55.848;37.636;2022-10-16T07:28:26;10.93;;;5.20;;
45366;SDS011;31100;55.848;37.636;2022-10-16T07:30:52;10.48;;;5.72;;
45366;SDS011;31100;55.848;37.636;2022-10-16T07:33:17;10.40;;;5.25;;
45366;SDS011;31100;55.848;37.636;2022-10-16T07:35:50;11.05;;;6.07;;
45366;SDS011;31100;55.848;37.636;2022-10-16T07:38:16;11.85;;;5.50;;
45366;SDS011;31100;55.848;37.636;2022-10-16T07:40:42;10.27;;;5.15;;
45366;SDS011;31100;55.848;37.636;2022-10-16T07:43:07;11.48;;;5.82;;
45366;SDS011;31100;55.848;37.636;2022-10-16T07:45:33;10.95;;;5.82;;
45366;SDS011;31100;55.848;37.636;2022-10-16T07:47:59;10.20;;;5.45;;
45366;SDS011;31100;55.848;37.636;2022-10-16T07:50:24;12.25;;;5.55;;
45366;SDS011;31100;55.848;37.636;2022-10-16T07:52:50;11.00;;;5.40;;
45366;SDS011;31100;55.848;37.636;2022-10-16T07:55:15;10.35;;;5.88;;
45366;SDS011;31100;55.848;37.636;2022-10-16T07:57:41;9.13;;;5.63;;
45366;SDS011;31100;55.848;37.636;2022-10-16T08:00:07;10.45;;;6.05;;
45366;SDS011;31100;55.848;37.636;2022-10-16T08:02:38;14.32;;;5.53;;
45366;SDS011;31100;55.848;37.636;2022-10-16T08:05:04;13.13;;;5.35;;
45366;SDS011;31100;55.848;37.636;2022-10-16T08:07:30;12.80;;;5.28;;
45366;SDS011;31100;55.848;37.636;2022-10-16T08:09:56;8.57;;;5.47;;
45366;SDS011;31100;55.848;37.636;2022-10-16T08:12:23;7.78;;;4.95;;
45366;SDS011;31100;55.848;37.636;2022-10-16T08:14:48;11.73;;;5.68;;
45366;SDS011;31100;55.848;37.636;2022-10-16T08:17:14;12.85;;;5.97;;
45366;SDS011;31100;55.848;37.636;2022-10-16T08:19:43;10.15;;;5.20;;
45366;SDS011;31100;55.848;37.636;2022-10-16T08:22:10;11.02;;;4.88;;
45366;SDS011;31100;55.848;37.636;2022-10-16T08:24:35;12.30;;;5.47;;
45366;SDS011;31100;55.848;37.636;2022-10-16T08:27:02;9.75;;;5.50;;
45366;SDS011;31100;55.848;37.636;2022-10-16T08:29:28;11.35;;;5.45;;
45366;SDS011;31100;55.848;37.636;2022-10-16T08:31:53;11.05;;;5.05;;
45366;SDS011;31100;55.848;37.636;2022-10-16T08:34:19;13.07;;;6.03;;
45366;SDS011;31100;55.848;37.636;2022-10-16T08:36:44;11.98;;;5.20;;
45366;SDS011;31100;55.848;37.636;2022-10-16T08:39:10;14.15;;;6.43;;
45366;SDS011;31100;55.848;37.636;2022-10-16T08:49:57;11.20;;;5.35;;
45366;SDS011;31100;55.848;37.636;2022-10-16T08:52:29;11.32;;;4.50;;
45366;SDS011;31100;55.848;37.636;2022-10-16T08:54:56;9.45;;;4.60;;
45366;SDS011;31100;55.848;37.636;2022-10-16T08:57:22;12.27;;;5.70;;
45366;SDS011;31100;55.848;37.636;2022-10-16T08:59:51;10.38;;;4.35;;
45366;SDS011;31100;55.848;37.636;2022-10-16T09:02:24;9.23;;;4.25;;
45366;SDS011;31100;55.848;37.636;2022-10-16T09:05:02;11.27;;;4.88;;
45366;SDS011;31100;55.848;37.636;2022-10-16T09:08:09;12.57;;;5.13;;
45366;SDS011;31100;55.848;37.636;2022-10-16T09:10:48;12.07;;;4.53;;
45366;SDS011;31100;55.848;37.636;2022-10-16T09:13:18;9.75;;;4.32;;
45366;SDS011;31100;55.848;37.636;2022-10-16T09:15:50;9.45;;;4.30;;
45366;SDS011;31100;55.848;37.636;2022-10-16T09:18:32;8.30;;;3.90;;
45366;SDS011;31100;55.848;37.636;2022-10-16T09:23:47;8.68;;;3.75;;
45366;SDS011;31100;55.848;37.636;2022-10-16T09:26:13;8.13;;;3.78;;
45366;SDS011;31100;55.848;37.636;2022-10-16T09:28:39;9.27;;;4.28;;
45366;SDS011;31100;55.848;37.636;2022-10-16T09:31:05;7.35;;;4.18;;
45366;SDS011;31100;55.848;37.636;2022-10-16T09:33:35;9.35;;;3.75;;
45366;SDS011;31100;55.848;37.636;2022-10-16T09:36:02;9.57;;;4.43;;
45366;SDS011;31100;55.848;37.636;2022-10-16T09:38:31;8.73;;;3.72;;
45366;SDS011;31100;55.848;37.636;2022-10-16T09:41:21;9.20;;;4.22;;
45366;SDS011;31100;55.848;37.636;2022-10-16T09:49:20;11.10;;;4.10;;
45366;SDS011;31100;55.848;37.636;2022-10-16T09:51:51;12.18;;;4.03;;
45366;SDS011;31100;55.848;37.636;2022-10-16T09:54:28;8.82;;;4.65;;
45366;SDS011;31100;55.848;37.636;2022-10-16T09:57:03;8.82;;;3.92;;
45366;SDS011;31100;55.848;37.636;2022-10-16T09:59:31;11.32;;;4.50;;
45366;SDS011;31100;55.848;37.636;2022-10-16T10:01:56;7.25;;;3.38;;
45366;SDS011;31100;55.848;37.636;2022-10-16T10:04:36;8.40;;;3.38;;
45366;SDS011;31100;55.848;37.636;2022-10-16T10:07:04;9.35;;;3.17;;
45366;SDS011;31100;55.848;37.636;2022-10-16T10:09:31;7.20;;;3.20;;
45366;SDS011;31100;55.848;37.636;2022-10-16T10:12:02;6.35;;;3.15;;
45366;SDS011;31100;55.848;37.636;2022-10-16T10:14:38;6.10;;;2.80;;
45366;SDS011;31100;55.848;37.636;2022-10-16T10:19:46;6.15;;;2.72;;
45366;SDS011;31100;55.848;37.636;2022-10-16T10:30:23;6.63;;;3.15;;
45366;SDS011;31100;55.848;37.636;2022-10-16T10:35:44;6.07;;;2.83;;
45366;SDS011;31100;55.848;37.636;2022-10-16T10:38:24;6.00;;;2.70;;
45366;SDS011;31100;55.848;37.636;2022-10-16T10:40:59;6.93;;;2.88;;
45366;SDS011;31100;55.848;37.636;2022-10-16T10:43:35;5.90;;;2.50;;
45366;SDS011;31100;55.848;37.636;2022-10-16T10:46:25;9.32;;;3.53;;
45366;SDS011;31100;55.848;37.636;2022-10-16T10:51:34;8.00;;;3.15;;
45366;SDS011;31100;55.848;37.636;2022-10-16T10:54:20;6.72;;;3.40;;
45366;SDS011;31100;55.848;37.636;2022-10-16T10:56:56;5.78;;;3.40;;
45366;SDS011;31100;55.848;37.636;2022-10-16T10:59:37;12.05;;;3.83;;
45366;SDS011;31100;55.848;37.636;2022-10-16T11:04:53;7.72;;;3.03;;
45366;SDS011;31100;55.848;37.636;2022-10-16T11:07:33;6.90;;;2.97;;
45366;SDS011;31100;55.848;37.636;2022-10-16T11:10:13;7.85;;;3.33;;
45366;SDS011;31100;55.848;37.636;2022-10-16T11:12:46;5.65;;;3.20;;
45366;SDS011;31100;55.848;37.636;2022-10-16T11:15:23;8.00;;;2.72;;
45366;SDS011;31100;55.848;37.636;2022-10-16T11:17:57;8.18;;;3.53;;
45366;SDS011;31100;55.848;37.636;2022-10-16T11:20:31;7.07;;;3.88;;
45366;SDS011;31100;55.848;37.636;2022-10-16T11:23:11;5.85;;;3.42;;
45366;SDS011;31100;55.848;37.636;2022-10-16T11:25:42;7.68;;;2.97;;
45366;SDS011;31100;55.848;37.636;2022-10-16T11:28:10;8.95;;;3.47;;
45366;SDS011;31100;55.848;37.636;2022-10-16T11:35:52;9.20;;;3.60;;
45366;SDS011;31100;55.848;37.636;2022-10-16T11:38:32;6.70;;;3.25;;
45366;SDS011;31100;55.848;37.636;2022-10-16T11:43:46;7.80;;;3.40;;
45366;SDS011;31100;55.848;37.636;2022-10-16T11:46:19;6.20;;;3.60;;
45366;SDS011;31100;55.848;37.636;2022-10-16T11:48:48;9.40;;;3.55;;
45366;SDS011;31100;55.848;37.636;2022-10-16T11:51:20;6.88;;;3.10;;
45366;SDS011;31100;55.848;37.636;2022-10-16T11:56:46;8.02;;;3.65;;
45366;SDS011;31100;55.848;37.636;2022-10-16T12:01:54;10.40;;;4.00;;
45366;SDS011;31100;55.848;37.636;2022-10-16T12:04:36;6.40;;;3.40;;
45366;SDS011;31100;55.848;37.636;2022-10-16T12:07:23;8.40;;;4.07;;
45366;SDS011;31100;55.848;37.636;2022-10-16T12:09:52;8.38;;;3.78;;
45366;SDS011;31100;55.848;37.636;2022-10-16T12:15:24;8.30;;;3.28;;
45366;SDS011;31100;55.848;37.636;2022-10-16T12:17:51;7.40;;;3.80;;
45366;SDS011;31100;55.848;37.636;2022-10-16T12:25:23;8.93;;;3.90;;
45366;SDS011;31100;55.848;37.636;2022-10-16T12:27:53;7.38;;;3.70;;
45366;SDS011;31100;55.848;37.636;2022-10-16T12:30:22;7.43;;;3.78;;
45366;SDS011;31100;55.848;37.636;2022-10-16T12:32:55;10.10;;;3.85;;
45366;SDS011;31100;55.848;37.636;2022-10-16T12:35:24;10.00;;;3.47;;
45366;SDS011;31100;55.848;37.636;2022-10-16T12:37:51;8.85;;;3.45;;
45366;SDS011;31100;55.848;37.636;2022-10-16T12:40:31;6.75;;;3.80;;
45366;SDS011;31100;55.848;37.636;2022-10-16T12:42:58;7.78;;;3.80;;
45366;SDS011;31100;55.848;37.636;2022-10-16T12:45:30;10.38;;;3.97;;
45366;SDS011;31100;55.848;37.636;2022-10-16T12:47:58;9.43;;;3.63;;
45366;SDS011;31100;55.848;37.636;2022-10-16T12:50:30;7.13;;;3.35;;
45366;SDS011;31100;55.848;37.636;2022-10-16T12:52:56;10.98;;;4.38;;
45366;SDS011;31100;55.848;37.636;2022-10-16T12:55:23;5.82;;;3.33;;
45366;SDS011;31100;55.848;37.636;2022-10-16T13:05:58;7.80;;;3.80;;
45366;SDS011;31100;55.848;37.636;2022-10-16T13:08:52;8.10;;;3.47;;
45366;SDS011;31100;55.848;37.636;2022-10-16T13:25:13;9.13;;;3.42;;
45366;SDS011;31100;55.848;37.636;2022-10-16T13:30:26;9.10;;;4.07;;
45366;SDS011;31100;55.848;37.636;2022-10-16T13:32:57;9.85;;;4.40;;
45366;SDS011;31100;55.848;37.636;2022-10-16T13:35:24;8.23;;;3.72;;
45366;SDS011;31100;55.848;37.636;2022-10-16T13:38:02;9.27;;;4.40;;
45366;SDS011;31100;55.848;37.636;2022-10-16T13:40:36;8.13;;;4.05;;
45366;SDS011;31100;55.848;37.636;2022-10-16T13:43:02;10.85;;;4.00;;
45366;SDS011;31100;55.848;37.636;2022-10-16T13:45:28;12.13;;;5.93;;
45366;SDS011;31100;55.848;37.636;2022-10-16T13:48:04;10.88;;;3.35;;
45366;SDS011;31100;55.848;37.636;2022-10-16T13:50:30;7.88;;;3.58;;
45366;SDS011;31100;55.848;37.636;2022-10-16T13:53:03;9.88;;;5.20;;
45366;SDS011;31100;55.848;37.636;2022-10-16T13:55:31;12.57;;;4.07;;
45366;SDS011;31100;55.848;37.636;2022-10-16T13:58:13;8.25;;;3.60;;
45366;SDS011;31100;55.848;37.636;2022-10-16T14:00:40;6.90;;;3.55;;
45366;SDS011;31100;55.848;37.636;2022-10-16T14:03:13;10.75;;;4.55;;
45366;SDS011;31100;55.848;37.636;2022-10-16T14:05:49;9.75;;;4.20;;
45366;SDS011;31100;55.848;37.636;2022-10-16T14:08:35;9.18;;;4.32;;
45366;SDS011;31100;55.848;37.636;2022-10-16T14:11:01;10.45;;;4.55;;
45366;SDS011;31100;55.848;37.636;2022-10-16T14:13:29;9.18;;;3.50;;
45366;SDS011;31100;55.848;37.636;2022-10-16T14:16:05;8.50;;;3.88;;
45366;SDS011;31100;55.848;37.636;2022-10-16T14:18:32;7.07;;;3.55;;
45366;SDS011;31100;55.848;37.636;2022-10-16T14:21:05;9.05;;;4.53;;
45366;SDS011;31100;55.848;37.636;2022-10-16T14:23:34;11.75;;;4.88;;
45366;SDS011;31100;55.848;37.636;2022-10-16T14:26:22;11.63;;;6.50;;
45366;SDS011;31100;55.848;37.636;2022-10-16T14:28:49;16.00;;;8.35;;
45366;SDS011;31100;55.848;37.636;2022-10-16T14:31:30;10.73;;;5.53;;
45366;SDS011;31100;55.848;37.636;2022-10-16T14:33:57;9.88;;;4.75;;
45366;SDS011;31100;55.848;37.636;2022-10-16T14:36:24;12.23;;;5.68;;
45366;SDS011;31100;55.848;37.636;2022-10-16T14:39:06;10.20;;;4.80;;
45366;SDS011;31100;55.848;37.636;2022-10-16T14:41:43;12.40;;;4.80;;
45366;SDS011;31100;55.848;37.636;2022-10-16T14:44:11;13.27;;;5.85;;
45366;SDS011;31100;55.848;37.636;2022-10-16T14:46:38;12.90;;;4.75;;
45366;SDS011;31100;55.848;37.636;2022-10-16T14:51:34;8.20;;;3.97;;
45366;SDS011;31100;55.848;37.636;2022-10-16T14:53:59;10.63;;;5.25;;
45366;SDS011;31100;55.848;37.636;2022-10-16T14:56:29;10.43;;;5.20;;
45366;SDS011;31100;55.848;37.636;2022-10-16T14:59:00;10.02;;;4.88;;
45366;SDS011;31100;55.848;37.636;2022-10-16T15:01:26;13.20;;;5.75;;
45366;SDS011;31100;55.848;37.636;2022-10-16T15:03:51;8.77;;;4.78;;
45366;SDS011;31100;55.848;37.636;2022-10-16T15:06:19;7.68;;;4.15;;
45366;SDS011;31100;55.848;37.636;2022-10-16T15:08:45;13.18;;;4.10;;
45366;SDS011;31100;55.848;37.636;2022-10-16T15:11:14;12.10;;;4.32;;
45366;SDS011;31100;55.848;37.636;2022-10-16T15:13:41;9.75;;;4.20;;
45366;SDS011;31100;55.848;37.636;2022-10-16T15:16:14;12.73;;;4.32;;
45366;SDS011;31100;55.848;37.636;2022-10-16T15:21:06;10.20;;;5.22;;
45366;SDS011;31100;55.848;37.636;2022-10-16T15:23:32;11.55;;;5.72;;
45366;SDS011;31100;55.848;37.636;2022-10-16T15:25:57;13.35;;;7.97;;
45366;SDS011;31100;55.848;37.636;2022-10-16T15:28:23;13.50;;;4.90;;
45366;SDS011;31100;55.848;37.636;2022-10-16T15:30:51;8.40;;;4.43;;
45366;SDS011;31100;55.848;37.636;2022-10-16T15:33:22;10.65;;;4.68;;
45366;SDS011;31100;55.848;37.636;2022-10-16T15:35:50;8.70;;;4.68;;
45366;SDS011;31100;55.848;37.636;2022-10-16T15:38:17;8.80;;;4.60;;
45366;SDS011;31100;55.848;37.636;2022-10-16T15:40:44;10.98;;;5.10;;
45366;SDS011;31100;55.848;37.636;2022-10-16T15:43:10;10.23;;;5.00;;
45366;SDS011;31100;55.848;37.636;2022-10-16T15:45:36;7.78;;;4.13;;
45366;SDS011;31100;55.848;37.636;2022-10-16T15:48:02;8.40;;;4.68;;
45366;SDS011;31100;55.848;37.636;2022-10-16T15:50:30;8.32;;;3.97;;
45366;SDS011;31100;55.848;37.636;2022-10-16T15:52:56;9.68;;;4.35;;
45366;SDS011;31100;55.848;37.636;2022-10-16T15:55:21;10.93;;;5.32;;
45366;SDS011;31100;55.848;37.636;2022-10-16T15:57:47;10.15;;;5.28;;
45366;SDS011;31100;55.848;37.636;2022-10-16T16:00:14;6.70;;;4.38;;
45366;SDS011;31100;55.848;37.636;2022-10-16T16:02:42;8.95;;;5.00;;
45366;SDS011;31100;55.848;37.636;2022-10-16T16:05:09;8.98;;;5.32;;
45366;SDS011;31100;55.848;37.636;2022-10-16T16:07:56;8.43;;;4.68;;
45366;SDS011;31100;55.848;37.636;2022-10-16T16:10:22;8.40;;;4.18;;
45366;SDS011;31100;55.848;37.636;2022-10-16T16:12:48;10.45;;;4.78;;
45366;SDS011;31100;55.848;37.636;2022-10-16T16:15:18;8.90;;;4.63;;
45366;SDS011;31100;55.848;37.636;2022-10-16T16:17:47;8.35;;;4.30;;
45366;SDS011;31100;55.848;37.636;2022-10-16T16:20:13;8.20;;;4.88;;
45366;SDS011;31100;55.848;37.636;2022-10-16T16:22:39;9.43;;;4.63;;
45366;SDS011;31100;55.848;37.636;2022-10-16T16:25:05;10.13;;;4.40;;
45366;SDS011;31100;55.848;37.636;2022-10-16T16:27:33;11.50;;;4.28;;
45366;SDS011;31100;55.848;37.636;2022-10-16T16:30:00;8.68;;;4.25;;
45366;SDS011;31100;55.848;37.636;2022-10-16T16:32:26;9.60;;;5.07;;